Terminal Aerodrome Forecast
Issued by NWS North Platte, NE

Home | Current Version | Previous Version | Graphics & Text | Print | Product List | Glossary On
Versions: 1 2 3 4 5 6 7 8 9 10 11 12 13 14 15 16 17 18 19 20
000
FTUS43 KLBF 252300
TAFVTN
TAF
KVTN 252320Z 2600/2624 36013G19KT 6SM -SN OVC018
      TEMPO 2600/2603 2SM -SHSN OVC013
     FM260400 34010KT P6SM BKN025
     FM261300 34010KT P6SM SCT025
     FM261600 35013KT P6SM SKC=

USA.gov is the U.S. government's official web portal to all federal, state and local government web resources and services.